createdAt,value
2022-08-02T00:03:13.906Z,59.38
2022-08-02T00:06:10.826Z,59.47
2022-08-02T00:09:07.405Z,59.48
2022-08-02T00:12:05.077Z,59.46
2022-08-02T00:15:03.210Z,59.45
2022-08-02T00:18:01.080Z,59.59
2022-08-02T00:21:01.135Z,59.56
2022-08-02T00:24:28.900Z,59.64
2022-08-02T00:27:16.915Z,59.60
2022-08-02T00:30:13.675Z,59.66
2022-08-02T00:33:10.133Z,59.64
2022-08-02T00:36:06.976Z,59.57
2022-08-02T00:39:02.831Z,59.58
2022-08-02T00:41:59.910Z,59.55
2022-08-02T00:44:56.853Z,59.62
2022-08-02T00:48:09.156Z,59.66
2022-08-02T00:51:06.059Z,59.66
2022-08-02T00:54:13.258Z,59.77
2022-08-02T00:57:10.900Z,59.71
2022-08-02T01:00:07.795Z,59.55
2022-08-02T01:03:04.885Z,59.83
2022-08-02T01:06:11.548Z,59.89
2022-08-02T01:09:07.835Z,59.99
2022-08-02T01:12:08.233Z,59.91
2022-08-02T01:15:06.114Z,59.84
2022-08-02T01:18:05.875Z,59.85
2022-08-02T01:21:02.967Z,59.77
2022-08-02T01:24:00.169Z,59.94
2022-08-02T01:26:57.465Z,60.07
2022-08-02T01:29:54.074Z,60.04
2022-08-02T01:32:52.114Z,60.14
2022-08-02T01:35:50.689Z,60.15
2022-08-02T01:38:48.796Z,60.17
2022-08-02T01:41:45.877Z,60.21
2022-08-02T01:44:42.713Z,60.30
2022-08-02T01:47:39.675Z,60.42
2022-08-02T01:50:36.700Z,60.48
2022-08-02T01:53:32.683Z,60.53
2022-08-02T01:56:30.031Z,60.55
2022-08-02T01:59:27.570Z,60.62
2022-08-02T02:02:23.765Z,60.62
2022-08-02T02:05:20.867Z,60.69
2022-08-02T02:08:27.448Z,60.62
2022-08-02T02:12:09.529Z,60.70
2022-08-02T02:14:51.742Z,60.78
2022-08-02T02:18:12.458Z,61.02
2022-08-02T02:21:07.974Z,60.85
2022-08-02T02:24:05.937Z,61.02
2022-08-02T02:27:08.706Z,60.95
2022-08-02T02:30:05.817Z,60.91
2022-08-02T02:33:01.806Z,60.94
2022-08-02T02:36:01.023Z,61.05
2022-08-02T02:38:57.810Z,60.92
2022-08-02T02:41:54.945Z,60.96
2022-08-02T02:44:51.951Z,61.16
2022-08-02T02:47:51.769Z,61.24
2022-08-02T02:50:49.119Z,61.27
2022-08-02T02:54:33.739Z,61.37
2022-08-02T02:57:04.634Z,61.34
2022-08-02T03:00:01.681Z,61.33
2022-08-02T03:02:58.825Z,61.41
2022-08-02T03:05:59.393Z,61.35
2022-08-02T03:09:15.009Z,61.48
2022-08-02T03:12:20.057Z,61.52
2022-08-02T03:15:14.918Z,61.68
2022-08-02T03:18:11.668Z,61.69
2022-08-02T03:21:12.167Z,61.64
2022-08-02T03:24:09.881Z,61.76
2022-08-02T03:27:06.636Z,61.75
2022-08-02T03:30:03.813Z,61.69
2022-08-02T03:33:00.835Z,61.78
2022-08-02T03:35:58.104Z,61.73
2022-08-02T03:38:55.871Z,61.67
2022-08-02T03:41:53.174Z,61.86
2022-08-02T03:44:50.833Z,61.91
2022-08-02T03:47:47.768Z,62.08
2022-08-02T03:50:44.822Z,62.06
2022-08-02T03:53:41.715Z,62.09
2022-08-02T03:56:38.659Z,62.12
2022-08-02T03:59:35.749Z,62.07
2022-08-02T04:02:37.546Z,62.07
2022-08-02T04:05:34.819Z,62.20
2022-08-02T04:08:53.451Z,62.21
2022-08-02T04:11:50.641Z,62.16
2022-08-02T04:14:48.013Z,62.21
2022-08-02T04:17:48.813Z,62.14
2022-08-02T04:20:45.977Z,62.24
2022-08-02T04:23:42.804Z,62.30
2022-08-02T04:26:40.896Z,62.17
2022-08-02T04:29:46.987Z,62.14
2022-08-02T04:32:44.752Z,62.21
2022-08-02T04:35:44.840Z,62.27
2022-08-02T04:38:42.867Z,62.22
2022-08-02T04:41:43.985Z,62.24
2022-08-02T04:44:41.976Z,62.31
2022-08-02T04:48:02.174Z,62.42
2022-08-02T04:50:59.986Z,62.47
2022-08-02T04:54:06.203Z,62.55
2022-08-02T04:57:27.885Z,62.57
2022-08-02T05:00:24.921Z,62.49
2022-08-02T05:03:22.638Z,62.59
2022-08-02T05:06:20.123Z,62.59
2022-08-02T05:09:17.774Z,62.72
2022-08-02T05:12:14.543Z,62.73
2022-08-02T05:15:12.866Z,62.73
2022-08-02T05:18:10.603Z,62.70
2022-08-02T05:21:08.608Z,62.79
2022-08-02T05:24:05.779Z,62.84
2022-08-02T05:27:02.776Z,62.87
2022-08-02T05:30:18.558Z,62.82
2022-08-02T05:33:18.695Z,62.88
2022-08-02T05:36:15.832Z,63.12
2022-08-02T05:39:18.589Z,63.08
2022-08-02T05:42:16.539Z,63.03
2022-08-02T05:45:13.675Z,63.10
2022-08-02T05:48:13.506Z,63.08
2022-08-02T05:51:10.572Z,63.24
2022-08-02T05:54:07.582Z,63.19
2022-08-02T05:57:04.735Z,63.25
2022-08-02T06:00:02.992Z,63.26
2022-08-02T06:03:00.858Z,63.22
2022-08-02T06:05:56.806Z,63.29
2022-08-02T06:08:57.763Z,63.45
2022-08-02T06:12:01.307Z,63.42
2022-08-02T06:14:54.621Z,63.45
2022-08-02T06:17:45.520Z,63.54
2022-08-02T06:20:43.834Z,63.54
2022-08-02T06:23:40.852Z,63.54
2022-08-02T06:26:58.068Z,63.81
2022-08-02T06:29:54.451Z,63.84
2022-08-02T06:32:42.394Z,63.75
2022-08-02T06:35:45.575Z,63.85
2022-08-02T06:38:42.876Z,63.85
2022-08-02T06:41:47.658Z,63.85
2022-08-02T06:44:48.989Z,63.78
2022-08-02T06:47:39.502Z,64.08
2022-08-02T06:50:38.596Z,64.17
2022-08-02T06:53:35.761Z,64.35
2022-08-02T06:56:35.063Z,64.37
2022-08-02T06:59:42.624Z,64.47
2022-08-02T07:02:26.100Z,64.23
2022-08-02T07:05:09.645Z,64.29
2022-08-02T07:07:52.677Z,64.34
2022-08-02T07:10:49.614Z,64.21
2022-08-02T07:13:40.617Z,64.25
2022-08-02T07:16:37.734Z,64.25
2022-08-02T07:19:38.097Z,64.17
2022-08-02T07:22:35.535Z,64.27
2022-08-02T07:26:02.680Z,64.18
2022-08-02T07:28:59.006Z,63.95
2022-08-02T07:31:56.965Z,64.08
2022-08-02T07:34:55.346Z,64.25
2022-08-02T07:37:55.339Z,64.07
2022-08-02T07:40:58.696Z,64.14
2022-08-02T07:43:55.456Z,64.23
2022-08-02T07:46:46.567Z,63.97
2022-08-02T07:49:45.607Z,64.08
2022-08-02T07:52:42.421Z,64.03
2022-08-02T07:55:39.303Z,64.10
2022-08-02T07:58:49.997Z,64.04
2022-08-02T08:01:57.572Z,63.98
2022-08-02T08:04:54.644Z,63.91
2022-08-02T08:07:38.459Z,63.97
2022-08-02T08:10:26.591Z,63.97
2022-08-02T08:13:23.524Z,63.95
2022-08-02T08:16:20.609Z,63.64
2022-08-02T08:19:16.562Z,63.35
2022-08-02T08:22:14.814Z,63.15
2022-08-02T08:25:05.754Z,63.27
2022-08-02T08:28:04.617Z,63.20
2022-08-02T08:31:02.594Z,63.22
2022-08-02T08:33:59.593Z,63.20
2022-08-02T08:36:59.560Z,63.11
2022-08-02T08:39:58.904Z,63.06
2022-08-02T08:42:56.447Z,63.19
2022-08-02T08:45:55.971Z,62.97
2022-08-02T08:48:53.344Z,62.96
2022-08-02T08:52:01.501Z,62.70
2022-08-02T08:55:01.498Z,62.42
2022-08-02T08:57:54.602Z,62.55
2022-08-02T09:00:59.600Z,62.30
2022-08-02T09:04:01.453Z,62.07
2022-08-02T09:06:58.619Z,62.27
2022-08-02T09:10:01.343Z,62.22
2022-08-02T09:13:31.190Z,61.92
2022-08-02T09:16:39.645Z,61.97
2022-08-02T09:19:53.464Z,61.39
2022-08-02T09:22:55.813Z,61.47
2022-08-02T09:29:07.363Z,61.58
2022-08-02T09:32:05.093Z,60.94
2022-08-02T09:35:04.559Z,60.57
2022-08-02T09:38:07.820Z,60.34
2022-08-02T09:44:59.364Z,60.51
2022-08-02T09:47:58.755Z,59.78
2022-08-02T09:50:59.705Z,59.95
2022-08-02T09:54:09.413Z,59.97
2022-08-02T09:57:01.705Z,59.65
2022-08-02T10:00:50.829Z,59.78
2022-08-02T10:03:48.474Z,59.67
2022-08-02T10:06:49.577Z,59.37
2022-08-02T10:09:54.366Z,59.48
2022-08-02T10:12:51.812Z,59.19
2022-08-02T10:15:50.420Z,59.04
2022-08-02T10:18:41.790Z,59.04
2022-08-02T10:21:46.818Z,58.56
2022-08-02T10:24:48.291Z,58.52
2022-08-02T10:28:04.851Z,58.12
2022-08-02T10:31:07.084Z,57.74
2022-08-02T10:34:06.578Z,57.77
2022-08-02T10:37:06.349Z,57.83
2022-08-02T10:39:50.908Z,57.48
2022-08-02T10:42:50.575Z,57.53
2022-08-02T10:45:45.762Z,57.30
2022-08-02T10:48:48.506Z,56.72
2022-08-02T10:52:01.350Z,56.81
2022-08-02T10:54:58.457Z,56.76
2022-08-02T10:57:50.059Z,56.59
2022-08-02T11:00:40.538Z,56.93
2022-08-02T11:03:46.021Z,56.50
2022-08-02T11:06:46.509Z,56.31
2022-08-02T11:09:48.239Z,56.33
2022-08-02T11:12:45.812Z,55.99
2022-08-02T11:15:43.495Z,55.52
2022-08-02T11:18:45.676Z,55.13
2022-08-02T11:21:47.926Z,55.36
2022-08-02T11:24:48.976Z,55.55
2022-08-02T11:27:48.442Z,55.29
2022-08-02T11:30:47.477Z,55.07
2022-08-02T11:33:53.615Z,54.95
2022-08-02T11:36:53.698Z,55.00
2022-08-02T11:39:54.444Z,54.99
2022-08-02T11:42:44.384Z,54.92
2022-08-02T11:45:44.891Z,54.69
2022-08-02T11:48:44.904Z,54.58
2022-08-02T11:51:36.270Z,54.38
2022-08-02T11:54:36.335Z,54.38
2022-08-02T11:57:59.486Z,54.10
2022-08-02T12:00:50.346Z,54.27
2022-08-02T12:03:47.252Z,54.37
2022-08-02T12:06:48.607Z,54.25
2022-08-02T12:09:46.307Z,54.30
2022-08-02T12:12:43.421Z,54.20
2022-08-02T12:15:42.072Z,54.17
2022-08-02T12:18:49.804Z,54.25
2022-08-02T12:21:47.688Z,53.90
2022-08-02T12:24:45.413Z,53.82
2022-08-02T12:27:43.937Z,53.62
2022-08-02T12:30:41.240Z,53.58
2022-08-02T12:33:39.511Z,53.16
2022-08-02T12:36:36.122Z,53.24
2022-08-02T12:39:34.389Z,53.25
2022-08-02T12:42:31.253Z,52.96
2022-08-02T12:45:38.380Z,52.76
2022-08-02T12:48:48.386Z,53.04
2022-08-02T12:52:02.262Z,53.09
2022-08-02T12:55:02.482Z,52.80
2022-08-02T12:57:58.852Z,52.56
2022-08-02T13:01:01.121Z,52.16
2022-08-02T13:04:10.696Z,52.38
2022-08-02T13:07:13.531Z,52.36
2022-08-02T13:10:14.855Z,51.95
2022-08-02T13:13:00.301Z,51.98
2022-08-02T13:16:01.081Z,51.96
2022-08-02T13:18:58.948Z,51.67
2022-08-02T13:22:01.026Z,51.40
2022-08-02T13:25:02.540Z,51.03
2022-08-02T13:27:58.453Z,50.82
2022-08-02T13:30:47.841Z,50.76
2022-08-02T13:33:29.776Z,51.04
2022-08-02T13:36:32.234Z,51.11
2022-08-02T13:39:23.303Z,50.95
2022-08-02T13:42:20.159Z,51.18
2022-08-02T13:45:14.791Z,50.93
2022-08-02T13:48:10.697Z,50.93
2022-08-02T13:50:56.233Z,50.76
2022-08-02T13:53:46.307Z,50.49
2022-08-02T13:56:35.172Z,50.27
2022-08-02T13:59:56.787Z,50.47
2022-08-02T14:02:45.691Z,50.47
2022-08-02T14:05:46.941Z,50.07
2022-08-02T14:08:29.199Z,50.04
2022-08-02T14:11:16.237Z,50.22
2022-08-02T14:14:01.437Z,50.30
2022-08-02T14:17:04.305Z,50.34
2022-08-02T14:19:53.159Z,50.59
2022-08-02T14:22:35.243Z,50.11
2022-08-02T14:25:10.924Z,50.03
2022-08-02T14:27:57.093Z,50.06
2022-08-02T14:30:28.544Z,50.36
2022-08-02T14:33:01.278Z,50.23
2022-08-02T14:35:42.204Z,50.60
2022-08-02T14:38:31.207Z,50.42
2022-08-02T14:41:15.179Z,50.30
2022-08-02T14:44:06.441Z,50.27
2022-08-02T14:46:42.139Z,50.35
2022-08-02T14:49:14.240Z,50.25
2022-08-02T14:54:58.828Z,49.75
2022-08-02T14:57:58.221Z,49.37
2022-08-02T15:00:40.553Z,49.58
2022-08-02T15:03:19.211Z,49.49
2022-08-02T15:06:18.105Z,49.36
2022-08-02T15:09:15.216Z,49.20
2022-08-02T15:12:05.253Z,49.59
2022-08-02T15:14:42.909Z,49.16
2022-08-02T15:17:17.805Z,49.04
2022-08-02T15:19:57.609Z,48.75
2022-08-02T15:22:35.473Z,48.83
2022-08-02T15:25:30.247Z,48.81
2022-08-02T15:28:15.202Z,48.83
2022-08-02T15:31:00.359Z,48.74
2022-08-02T15:33:52.164Z,48.89
2022-08-02T15:36:40.128Z,49.30
2022-08-02T15:39:37.314Z,49.29
2022-08-02T15:42:30.200Z,48.99
2022-08-02T15:45:13.072Z,48.99
2022-08-02T15:48:06.304Z,49.04
2022-08-02T15:50:45.571Z,48.89
2022-08-02T15:53:20.721Z,48.93
2022-08-02T15:56:05.663Z,49.01
2022-08-02T15:58:44.243Z,48.60
2022-08-02T16:01:18.115Z,48.51
2022-08-02T16:03:48.697Z,48.84
2022-08-02T16:06:19.535Z,48.87
2022-08-02T16:08:53.695Z,49.06
2022-08-02T16:11:25.462Z,49.24
2022-08-02T16:13:56.331Z,49.09
2022-08-02T16:16:32.204Z,49.13
2022-08-02T16:19:47.159Z,49.24
2022-08-02T16:21:56.981Z,49.47
2022-08-02T16:24:28.009Z,49.69
2022-08-02T16:26:58.659Z,49.55
2022-08-02T16:29:44.056Z,49.59
2022-08-02T16:32:41.157Z,49.99
2022-08-02T16:35:47.456Z,49.98
2022-08-02T16:38:44.233Z,50.14
2022-08-02T16:41:50.800Z,49.91
2022-08-02T16:44:58.118Z,50.04
2022-08-02T16:47:56.503Z,50.35
2022-08-02T16:50:49.476Z,50.51
2022-08-02T16:53:59.983Z,50.48
2022-08-02T16:57:15.277Z,50.46
2022-08-02T17:00:24.285Z,50.56
2022-08-02T17:03:55.684Z,50.27
2022-08-02T17:06:47.711Z,50.47
2022-08-02T17:10:01.894Z,50.73
2022-08-02T17:13:11.469Z,50.59
2022-08-02T17:16:17.128Z,50.70
2022-08-02T17:19:14.232Z,50.72
2022-08-02T17:22:04.108Z,50.74
2022-08-02T17:24:59.366Z,50.69
2022-08-02T17:27:56.201Z,50.88
2022-08-02T17:30:53.386Z,51.12
2022-08-02T17:34:01.052Z,51.12
2022-08-02T17:36:58.139Z,51.26
2022-08-02T17:39:55.208Z,51.44
2022-08-02T17:42:51.140Z,51.42
2022-08-02T17:46:00.244Z,51.38
2022-08-02T17:49:10.740Z,51.57
2022-08-02T17:52:48.808Z,51.79
2022-08-02T17:55:31.082Z,51.71
2022-08-02T17:58:33.450Z,51.85
2022-08-02T18:05:53.205Z,51.93
2022-08-02T18:09:22.646Z,51.86
2022-08-02T18:13:14.093Z,51.84
2022-08-02T18:17:26.365Z,51.89
2022-08-02T18:20:46.394Z,52.09
2022-08-02T18:24:02.415Z,51.92
2022-08-02T18:27:21.101Z,51.80
2022-08-02T18:30:35.870Z,51.89
2022-08-02T18:34:00.468Z,51.84
2022-08-02T18:37:17.637Z,51.97
2022-08-02T18:41:12.480Z,52.00
2022-08-02T18:44:56.214Z,51.94
2022-08-02T18:48:17.470Z,52.07
2022-08-02T18:54:55.787Z,52.02
2022-08-02T18:58:20.242Z,52.02
2022-08-02T19:01:31.427Z,52.10
2022-08-02T19:04:27.321Z,52.03
2022-08-02T19:12:45.385Z,52.16
2022-08-02T19:15:31.153Z,52.06
2022-08-02T19:18:06.320Z,52.12
2022-08-02T19:20:39.905Z,52.05
2022-08-02T19:24:13.796Z,52.17
2022-08-02T19:28:34.787Z,52.17
2022-08-02T19:31:23.097Z,52.18
2022-08-02T19:34:08.151Z,52.10
2022-08-02T19:36:47.009Z,52.26
2022-08-02T19:39:31.286Z,52.29
2022-08-02T19:42:18.510Z,52.14
2022-08-02T19:49:39.177Z,52.05
2022-08-02T19:52:21.268Z,52.45
2022-08-02T19:54:55.231Z,52.41
2022-08-02T19:57:34.481Z,52.27
2022-08-02T20:05:24.073Z,52.45
2022-08-02T20:08:31.878Z,52.53
2022-08-02T20:11:06.377Z,52.44
2022-08-02T20:23:32.880Z,52.52
2022-08-02T20:27:34.649Z,52.56
2022-08-02T20:34:16.749Z,52.76
2022-08-02T20:36:54.025Z,52.72
2022-08-02T20:39:43.758Z,52.92
2022-08-02T20:42:22.557Z,52.95
2022-08-02T20:44:55.549Z,52.88
2022-08-02T20:51:58.005Z,52.87
2022-08-02T20:54:28.740Z,52.92
2022-08-02T20:56:59.176Z,53.16
2022-08-02T21:00:52.438Z,53.05
2022-08-02T21:03:23.276Z,53.18
2022-08-02T21:05:56.480Z,53.15
2022-08-02T21:08:28.369Z,53.20
2022-08-02T21:11:25.475Z,53.13
2022-08-02T21:16:53.827Z,53.12
2022-08-02T21:19:24.205Z,53.28
2022-08-02T21:21:54.736Z,53.31
2022-08-02T21:24:27.151Z,53.46
2022-08-02T21:26:57.569Z,53.29
2022-08-02T21:29:55.937Z,53.31
2022-08-02T21:32:26.562Z,53.42
2022-08-02T21:34:57.177Z,53.37
2022-08-02T21:37:33.040Z,53.41
2022-08-02T21:40:05.030Z,53.56
2022-08-02T21:42:35.517Z,53.41
2022-08-02T21:45:16.809Z,53.64
2022-08-02T21:47:47.925Z,53.76
2022-08-02T21:50:18.691Z,53.60
2022-08-02T21:52:52.010Z,53.77
2022-08-02T21:59:55.489Z,53.93
2022-08-02T22:02:30.632Z,53.80
2022-08-02T22:05:02.649Z,53.95
2022-08-02T22:07:38.307Z,54.08
2022-08-02T22:10:10.790Z,54.00
2022-08-02T22:12:41.371Z,53.88
2022-08-02T22:15:12.358Z,53.92
2022-08-02T22:18:21.281Z,54.05
2022-08-02T22:21:00.276Z,54.08
2022-08-02T22:23:38.795Z,54.06
2022-08-02T22:26:21.258Z,54.16
2022-08-02T22:28:59.600Z,54.24
2022-08-02T22:31:40.823Z,54.22
2022-08-02T22:34:37.120Z,54.26
2022-08-02T22:37:07.411Z,54.29
2022-08-02T22:40:06.081Z,54.28
2022-08-02T22:42:42.525Z,54.26
2022-08-02T22:45:14.232Z,54.33
2022-08-02T22:47:51.099Z,54.36
2022-08-02T22:50:21.856Z,54.42
2022-08-02T22:52:54.657Z,54.48
2022-08-02T22:55:25.266Z,54.44
2022-08-02T22:58:23.305Z,54.51
2022-08-02T22:59:02.194Z,53.15
2022-08-02T23:00:53.913Z,54.47
2022-08-02T23:03:24.551Z,54.49
2022-08-02T23:05:55.073Z,54.63
2022-08-02T23:08:56.793Z,54.69
2022-08-02T23:11:27.406Z,54.63
2022-08-02T23:13:57.841Z,54.77
2022-08-02T23:16:46.165Z,54.74
2022-08-02T23:19:43.169Z,54.76
2022-08-02T23:22:15.620Z,54.78
2022-08-02T23:24:47.319Z,54.70
2022-08-02T23:27:21.577Z,54.78
2022-08-02T23:29:51.826Z,54.87
2022-08-02T23:32:22.795Z,54.87
2022-08-02T23:39:16.597Z,55.02
2022-08-02T23:41:54.623Z,55.30
2022-08-02T23:44:26.535Z,55.16
2022-08-02T23:46:58.486Z,55.19
2022-08-02T23:50:14.583Z,55.33
2022-08-02T23:52:45.145Z,55.40
2022-08-02T23:55:15.553Z,55.57
2022-08-02T23:57:46.196Z,55.73
